RJDT(METAR)
08/12 20:00
METAR RJDT 121100Z VRB02KT 9999 FEW009 BKN/// 27/26 Q1006 RMK 2ST009
A2972=
戻る
トップページへ戻る
IMOC Co,.Ltd.